Time;durP1;ratioP1;P1;durP2;ratioP2;P2;SDS_P1;SDS_P2;PMS_P1;PMS_P2;Temp;Humidity;BMP_temperature;BMP_pressure;BME280_temperature;BME280_humidity;BME280_pressure;Samples;Min_cycle;Max_cycle;Signal;HPM_P1;HPM_P2
2021/06/12 00:02:21;;;;;;;7.22;6.50;;;18.10;68.10;;;;;;4994601;28;20080;-67
2021/06/12 00:04:46;;;;;;;6.28;5.78;;;18.10;68.10;;;;;;4997071;28;20030;-68
2021/06/12 00:07:12;;;;;;;6.88;6.38;;;18.10;68.00;;;;;;4995855;28;20025;-67
2021/06/12 00:09:38;;;;;;;6.85;6.25;;;18.10;68.00;;;;;;4994723;28;20536;-68
2021/06/12 00:12:06;;;;;;;6.55;6.05;;;18.10;68.20;;;;;;4991363;28;21222;-68
2021/06/12 00:14:31;;;;;;;6.75;6.15;;;18.10;68.30;;;;;;4991990;28;20050;-68
2021/06/12 00:16:57;;;;;;;7.07;6.47;;;18.10;68.10;;;;;;5000215;28;20038;-68
2021/06/12 00:19:22;;;;;;;7.63;6.93;;;18.10;68.20;;;;;;4996880;28;20181;-68
2021/06/12 00:21:48;;;;;;;8.27;7.55;;;18.00;68.50;;;;;;5006130;28;20069;-68
2021/06/12 00:24:14;;;;;;;8.23;7.47;;;18.00;68.60;;;;;;4993486;28;20240;-68
2021/06/12 00:26:40;;;;;;;8.93;8.13;;;18.00;68.80;;;;;;4995392;28;20030;-68
2021/06/12 00:29:05;;;;;;;9.10;7.88;;;17.90;68.80;;;;;;4992694;28;20047;-67
2021/06/12 00:31:31;;;;;;;8.52;7.72;;;17.90;69.00;;;;;;4994325;28;20117;-68
2021/06/12 00:33:57;;;;;;;8.27;7.47;;;17.90;69.10;;;;;;4995223;28;20046;-68
2021/06/12 00:36:23;;;;;;;8.43;7.57;;;17.80;69.30;;;;;;4995614;28;20030;-68
2021/06/12 00:38:50;;;;;;;7.72;7.10;;;17.80;69.30;;;;;;4998568;28;20113;-68
2021/06/12 00:41:16;;;;;;;7.25;6.28;;;17.80;70.60;;;;;;4998839;28;20081;-68
2021/06/12 00:43:43;;;;;;;6.88;6.28;;;17.80;69.50;;;;;;4997200;28;20031;-66
2021/06/12 00:46:09;;;;;;;6.93;6.32;;;17.80;69.30;;;;;;4996308;28;20034;-68
2021/06/12 00:48:35;;;;;;;6.35;5.85;;;17.80;69.50;;;;;;5000535;28;20048;-68
2021/06/12 00:51:01;;;;;;;6.78;5.97;;;17.80;69.20;;;;;;4999332;28;20042;-68
2021/06/12 00:53:42;;;;;;;6.95;6.18;;;17.80;69.00;;;;;;4997486;28;20081;-68
2021/06/12 00:56:13;;;;;;;6.65;5.95;;;17.80;68.70;;;;;;5010809;28;20502;-68
2021/06/12 00:58:43;;;;;;;6.60;6.00;;;17.70;69.00;;;;;;4999153;28;20038;-68
2021/06/12 01:01:14;;;;;;;5.97;5.47;;;17.70;68.60;;;;;;4997618;28;20046;-68
2021/06/12 01:03:40;;;;;;;6.40;5.80;;;17.60;68.60;;;;;;4999291;28;20120;-67
2021/06/12 01:06:24;;;;;;;6.40;5.80;;;17.60;68.90;;;;;;4997974;28;20038;-68
2021/06/12 01:08:50;;;;;;;6.55;5.25;;;17.60;70.00;;;;;;5003642;28;20037;-68
2021/06/12 01:11:16;;;;;;;6.20;5.70;;;17.50;68.90;;;;;;4997085;28;20035;-68
2021/06/12 01:13:47;;;;;;;6.20;5.60;;;17.50;68.90;;;;;;4996132;28;20513;-68
2021/06/12 01:16:43;;;;;;;10.52;6.20;;;17.50;69.50;;;;;;4998088;28;20048;-67
2021/06/12 01:19:36;;;;;;;6.13;5.57;;;17.50;70.90;;;;;;5002334;28;20034;-67
2021/06/12 01:22:08;;;;;;;8.73;5.88;;;17.50;69.70;;;;;;5013646;28;20042;-67
2021/06/12 01:24:55;;;;;;;6.50;5.90;;;17.40;69.20;;;;;;4996585;28;20036;-67
2021/06/12 01:27:30;;;;;;;5.97;5.47;;;17.50;70.20;;;;;;4998667;28;20516;-68
2021/06/12 01:29:58;;;;;;;;;;;17.40;69.60;;;;;;5012872;28;20066;-68
2021/06/12 01:32:26;;;;;;;5.65;5.13;;;17.30;69.30;;;;;;4997830;28;19932;-68
2021/06/12 01:34:54;;;;;;;6.13;5.47;;;17.30;68.60;;;;;;4996941;28;20045;-68
2021/06/12 01:37:22;;;;;;;6.47;5.88;;;17.30;69.10;;;;;;4998878;28;20502;-67
2021/06/12 01:39:50;;;;;;;6.70;6.00;;;17.20;69.60;;;;;;4998647;28;20117;-68
2021/06/12 01:42:19;;;;;;;6.70;5.65;;;17.20;69.70;;;;;;4996305;28;20262;-68
2021/06/12 01:44:46;;;;;;;6.30;5.72;;;17.10;70.00;;;;;;4997352;28;20088;-68
2021/06/12 01:47:13;;;;;;;6.80;6.20;;;17.10;70.10;;;;;;4993267;28;20035;-68
2021/06/12 01:49:41;;;;;;;6.47;5.97;;;17.10;70.50;;;;;;4996944;28;20395;-68
2021/06/12 01:52:07;;;;;;;6.68;6.10;;;17.00;70.70;;;;;;4996092;28;20115;-67
2021/06/12 01:54:35;;;;;;;6.50;6.00;;;17.00;70.60;;;;;;4998252;28;20057;-67
2021/06/12 01:57:02;;;;;;;6.60;6.10;;;17.00;71.60;;;;;;4999298;28;20034;-68
2021/06/12 01:59:29;;;;;;;6.95;5.85;;;16.90;70.70;;;;;;4996244;28;20037;-68
2021/06/12 02:01:59;;;;;;;7.93;6.13;;;16.90;70.90;;;;;;4994191;28;20033;-68
2021/06/12 02:04:26;;;;;;;6.97;6.38;;;17.00;70.90;;;;;;4996796;28;20121;-68
2021/06/12 02:06:53;;;;;;;6.68;5.97;;;16.90;70.80;;;;;;4996601;28;22123;-67
2021/06/12 02:09:19;;;;;;;7.38;6.07;;;16.90;70.80;;;;;;4998471;28;20452;-68
2021/06/12 02:11:45;;;;;;;6.15;5.63;;;16.90;70.90;;;;;;4994055;28;20041;-68
2021/06/12 02:14:13;;;;;;;6.40;5.80;;;16.90;70.80;;;;;;4997599;28;20041;-68
2021/06/12 02:16:39;;;;;;;6.45;5.95;;;16.90;71.10;;;;;;4995480;28;20042;-68
2021/06/12 02:19:06;;;;;;;7.53;6.70;;;16.90;70.80;;;;;;4997791;28;20033;-68
2021/06/12 02:21:35;;;;;;;7.45;6.75;;;16.80;70.90;;;;;;4994670;28;20754;-68
2021/06/12 02:24:03;;;;;;;6.82;6.05;;;16.80;71.10;;;;;;4996030;28;20045;-68
2021/06/12 02:26:31;;;;;;;7.18;6.47;;;16.90;71.10;;;;;;4998004;28;20517;-67
2021/06/12 02:28:58;;;;;;;7.22;6.50;;;16.80;71.30;;;;;;4999687;28;20050;-67
2021/06/12 02:31:26;;;;;;;7.60;6.90;;;16.90;71.00;;;;;;4996009;28;20738;-68
2021/06/12 02:33:53;;;;;;;13.30;7.97;;;16.90;71.20;;;;;;5002061;28;20042;-67
2021/06/12 02:36:19;;;;;;;11.98;7.70;;;16.90;71.30;;;;;;4994166;28;20037;-68
2021/06/12 02:38:45;;;;;;;8.63;7.82;;;16.90;71.30;;;;;;4995838;28;20038;-67
2021/06/12 02:41:11;;;;;;;9.05;8.13;;;16.90;71.40;;;;;;4995211;28;20045;-68
2021/06/12 02:43:37;;;;;;;9.13;8.32;;;16.90;71.30;;;;;;4995159;28;20516;-68
2021/06/12 02:46:05;;;;;;;9.00;8.18;;;16.90;71.40;;;;;;4993856;28;20039;-68
2021/06/12 02:48:32;;;;;;;9.10;7.75;;;16.90;71.60;;;;;;4994712;28;20045;-67
2021/06/12 02:51:00;;;;;;;8.65;7.57;;;16.90;71.60;;;;;;4997681;28;20042;-67
2021/06/12 02:53:30;;;;;;;7.95;7.18;;;16.90;71.60;;;;;;5002269;28;20056;-68
2021/06/12 02:56:00;;;;;;;6.90;6.30;;;16.90;71.50;;;;;;5009864;28;20341;-69
2021/06/12 02:58:27;;;;;;;6.35;5.78;;;16.90;71.60;;;;;;4993680;28;20576;-67
2021/06/12 03:00:54;;;;;;;6.85;6.25;;;16.90;72.10;;;;;;4995223;28;20584;-67
2021/06/12 03:03:20;;;;;;;8.45;6.15;;;16.90;71.10;;;;;;4998026;28;20432;-67
2021/06/12 03:05:53;;;;;;;6.75;6.05;;;16.90;70.90;;;;;;4996727;28;20675;-68
2021/06/12 03:08:20;;;;;;;6.95;6.35;;;16.90;70.90;;;;;;4995846;28;20038;-67
2021/06/12 03:10:47;;;;;;;6.97;6.28;;;16.80;70.80;;;;;;4994565;28;20050;-67
2021/06/12 03:13:18;;;;;;;6.85;6.25;;;16.80;71.10;;;;;;4994152;28;20531;-68
2021/06/12 03:15:45;;;;;;;7.30;6.70;;;16.80;71.20;;;;;;4994882;28;20039;-68
2021/06/12 03:18:11;;;;;;;9.23;6.18;;;16.80;71.20;;;;;;4993855;28;20129;-67
2021/06/12 03:20:39;;;;;;;6.97;6.38;;;16.70;71.10;;;;;;4994853;28;20033;-67
2021/06/12 03:23:06;;;;;;;8.55;6.55;;;16.70;71.30;;;;;;4997153;28;20045;-67
2021/06/12 03:25:32;;;;;;;7.97;7.18;;;16.70;71.30;;;;;;4995165;28;20030;-68
2021/06/12 03:27:59;;;;;;;7.50;6.90;;;16.60;71.30;;;;;;5000704;28;20041;-67
2021/06/12 03:30:25;;;;;;;7.90;7.10;;;16.60;71.60;;;;;;4996045;28;20117;-68
2021/06/12 03:32:52;;;;;;;7.82;7.00;;;16.50;72.00;;;;;;4995969;28;20042;-67
2021/06/12 03:35:19;;;;;;;8.05;7.35;;;16.50;72.10;;;;;;4994900;28;20046;-67
2021/06/12 03:37:46;;;;;;;8.20;7.22;;;16.50;72.30;;;;;;4996357;28;20065;-67
2021/06/12 03:40:12;;;;;;;8.25;6.88;;;16.40;72.30;;;;;;4994439;28;20042;-68
2021/06/12 03:42:39;;;;;;;7.32;6.63;;;16.40;72.30;;;;;;4992064;28;20022;-68
2021/06/12 03:45:10;;;;;;;6.68;6.07;;;16.40;72.40;;;;;;4995496;28;20054;-68
2021/06/12 03:47:38;;;;;;;7.45;6.32;;;16.40;72.60;;;;;;4994509;28;20027;-67
2021/06/12 03:50:07;;;;;;;6.75;6.15;;;16.40;72.30;;;;;;4993563;28;20022;-67
2021/06/12 03:52:33;;;;;;;7.15;6.55;;;16.40;72.50;;;;;;4995527;28;20049;-68
2021/06/12 03:55:00;;;;;;;7.93;7.03;;;16.50;72.30;;;;;;4994477;28;20057;-68
2021/06/12 03:57:26;;;;;;;6.85;6.25;;;16.50;72.20;;;;;;4993444;28;20072;-68
2021/06/12 03:59:53;;;;;;;7.70;7.00;;;16.40;72.10;;;;;;4998267;28;20607;-67
2021/06/12 04:02:18;;;;;;;7.40;6.80;;;16.40;72.10;;;;;;4994305;28;20034;-68
2021/06/12 04:04:46;;;;;;;7.93;7.28;;;16.40;72.10;;;;;;4990814;28;20116;-67
2021/06/12 04:07:12;;;;;;;7.28;6.57;;;16.40;72.40;;;;;;4996617;28;20034;-67
2021/06/12 04:09:38;;;;;;;7.78;6.93;;;16.40;72.70;;;;;;4994327;28;20053;-68
2021/06/12 04:12:04;;;;;;;7.63;6.93;;;16.30;73.00;;;;;;4994391;28;20034;-67
2021/06/12 04:14:30;;;;;;;10.55;9.45;;;16.30;72.90;;;;;;4990706;28;20054;-67
2021/06/12 04:16:55;;;;;;;9.43;8.52;;;16.30;72.80;;;;;;4995725;28;20084;-68
2021/06/12 04:19:21;;;;;;;10.45;8.63;;;16.40;72.80;;;;;;4992284;28;20386;-67
2021/06/12 04:21:48;;;;;;;19.88;11.90;;;16.40;73.20;;;;;;4996009;28;20056;-68
2021/06/12 04:24:15;;;;;;;16.45;11.32;;;16.40;73.00;;;;;;4998808;28;20113;-68
2021/06/12 04:26:40;;;;;;;11.00;9.02;;;16.50;73.30;;;;;;4994564;28;20564;-68
2021/06/12 04:29:06;;;;;;;11.52;9.55;;;16.50;73.20;;;;;;4995900;28;20042;-67
2021/06/12 04:31:32;;;;;;;15.32;11.02;;;16.50;73.20;;;;;;4992856;28;20613;-67
2021/06/12 04:33:57;;;;;;;12.00;10.10;;;16.60;73.20;;;;;;4997170;28;20046;-67
2021/06/12 04:36:23;;;;;;;10.18;8.85;;;16.60;73.00;;;;;;4991992;28;20034;-68
2021/06/12 04:38:48;;;;;;;10.55;9.60;;;16.60;73.10;;;;;;4996893;28;20108;-68
2021/06/12 04:41:14;;;;;;;9.23;8.32;;;16.70;73.40;;;;;;4993804;28;20952;-68
2021/06/12 04:43:40;;;;;;;9.43;8.50;;;16.70;73.50;;;;;;4995630;28;20029;-68
2021/06/12 04:46:06;;;;;;;9.15;8.35;;;16.80;73.60;;;;;;4993563;28;20046;-68
2021/06/12 04:48:31;;;;;;;9.48;8.55;;;16.80;73.90;;;;;;4990218;28;20030;-68
2021/06/12 04:50:57;;;;;;;9.80;8.65;;;16.80;74.10;;;;;;4990450;28;20045;-67
2021/06/12 04:53:22;;;;;;;10.00;8.95;;;16.80;74.20;;;;;;4994155;28;20042;-67
2021/06/12 04:55:48;;;;;;;9.65;8.57;;;16.80;74.40;;;;;;4995318;28;20093;-68
2021/06/12 04:58:14;;;;;;;9.52;8.70;;;16.90;74.70;;;;;;4994124;28;20088;-67
2021/06/12 05:00:40;;;;;;;9.70;8.80;;;16.90;74.70;;;;;;4993927;28;20459;-68
2021/06/12 05:03:05;;;;;;;10.43;8.60;;;17.00;74.90;;;;;;4992734;28;20069;-67
2021/06/12 05:05:31;;;;;;;9.43;8.55;;;17.00;75.00;;;;;;4994357;28;20044;-68
2021/06/12 05:07:57;;;;;;;9.25;8.45;;;17.00;75.30;;;;;;4995450;28;20047;-67
2021/06/12 05:10:23;;;;;;;9.88;8.88;;;17.10;75.30;;;;;;4991350;28;20041;-68
2021/06/12 05:12:49;;;;;;;12.30;8.50;;;17.10;75.40;;;;;;4993972;28;20042;-68
2021/06/12 05:15:15;;;;;;;9.93;8.93;;;17.20;75.30;;;;;;4995832;28;20041;-67
2021/06/12 05:17:41;;;;;;;9.98;9.00;;;17.20;75.20;;;;;;4992763;28;20049;-67
2021/06/12 05:20:09;;;;;;;10.73;9.68;;;17.30;75.40;;;;;;4993728;28;20070;-68
2021/06/12 05:22:35;;;;;;;9.20;8.30;;;17.40;75.50;;;;;;4992690;28;20025;-67
2021/06/12 05:25:01;;;;;;;9.93;9.02;;;17.50;75.30;;;;;;4998271;28;20038;-68
2021/06/12 05:27:26;;;;;;;11.05;9.57;;;17.60;75.20;;;;;;4996152;28;20382;-68
2021/06/12 05:29:52;;;;;;;9.70;8.73;;;17.70;75.10;;;;;;4998028;28;20026;-68
2021/06/12 05:32:18;;;;;;;10.77;9.68;;;17.70;74.90;;;;;;4995065;28;20037;-67
2021/06/12 05:34:44;;;;;;;10.90;9.70;;;17.90;75.40;;;;;;4993018;28;20044;-67
2021/06/12 05:37:10;;;;;;;11.98;10.77;;;18.00;76.00;;;;;;4994479;28;20401;-68
2021/06/12 05:39:36;;;;;;;9.65;8.73;;;18.10;75.30;;;;;;4994125;28;20129;-67
2021/06/12 05:42:02;;;;;;;10.25;8.85;;;18.20;75.10;;;;;;4996793;28;20681;-67
2021/06/12 05:44:27;;;;;;;9.68;8.77;;;18.30;75.10;;;;;;4996548;28;20050;-67
2021/06/12 05:46:53;;;;;;;9.18;8.27;;;18.30;74.70;;;;;;4998335;28;20030;-67
2021/06/12 05:49:19;;;;;;;9.82;7.85;;;18.40;74.60;;;;;;4998402;28;20034;-67
2021/06/12 05:51:46;;;;;;;8.23;7.45;;;18.50;74.40;;;;;;4992995;28;20656;-68
2021/06/12 05:54:11;;;;;;;8.52;7.72;;;18.70;73.90;;;;;;4997922;28;20088;-67
2021/06/12 05:56:37;;;;;;;8.68;7.45;;;18.70;73.30;;;;;;5000302;28;20034;-67
2021/06/12 05:59:03;;;;;;;8.45;7.40;;;18.90;73.10;;;;;;4998742;28;20042;-68
2021/06/12 06:01:29;;;;;;;8.45;7.35;;;18.90;73.00;;;;;;4996145;28;20034;-67
2021/06/12 06:03:54;;;;;;;7.22;6.63;;;19.10;72.60;;;;;;4991146;28;20046;-68
2021/06/12 06:06:20;;;;;;;7.57;6.88;;;19.20;71.90;;;;;;5001351;28;20126;-67
2021/06/12 06:08:45;;;;;;;7.50;6.90;;;19.20;71.30;;;;;;4995956;28;20873;-67
2021/06/12 06:11:11;;;;;;;8.88;8.07;;;19.30;70.90;;;;;;4992030;28;20046;-68
2021/06/12 06:13:42;;;;;;;9.98;8.55;;;19.40;71.80;;;;;;4998512;28;20121;-67
2021/06/12 06:16:08;;;;;;;9.52;8.50;;;19.50;72.80;;;;;;4997524;28;20394;-68
2021/06/12 06:18:36;;;;;;;11.38;8.45;;;19.60;72.40;;;;;;5007641;28;20445;-68
2021/06/12 06:21:02;;;;;;;8.60;7.80;;;19.70;72.80;;;;;;5001115;28;20046;-68
2021/06/12 06:23:28;;;;;;;8.55;7.60;;;19.90;72.30;;;;;;4997793;28;20037;-68
2021/06/12 06:25:54;;;;;;;8.23;7.45;;;19.90;71.60;;;;;;4998575;28;20034;-67
2021/06/12 06:28:20;;;;;;;7.57;6.95;;;20.00;71.30;;;;;;4999162;28;20053;-68
2021/06/12 06:30:46;;;;;;;6.97;6.18;;;20.10;70.70;;;;;;4998209;28;20073;-68
2021/06/12 06:33:11;;;;;;;6.85;6.13;;;20.30;69.80;;;;;;4995653;28;20065;-68
2021/06/12 06:35:37;;;;;;;6.78;6.18;;;20.30;69.70;;;;;;4998755;28;20034;-67
2021/06/12 06:38:03;;;;;;;6.47;5.88;;;20.40;69.30;;;;;;4997783;28;20039;-68
2021/06/12 06:40:29;;;;;;;6.95;6.32;;;20.50;69.80;;;;;;4997100;28;20042;-68
2021/06/12 06:42:55;;;;;;;6.22;5.72;;;20.60;69.30;;;;;;4998537;28;20029;-68
2021/06/12 06:45:21;;;;;;;7.55;6.80;;;20.60;69.00;;;;;;4998501;28;20030;-68
2021/06/12 06:47:47;;;;;;;6.88;6.22;;;20.70;68.90;;;;;;5002708;28;20034;-68
2021/06/12 06:50:16;;;;;;;7.20;6.50;;;20.80;68.80;;;;;;4999963;28;20026;-68
2021/06/12 06:52:42;;;;;;;7.20;6.50;;;20.80;68.70;;;;;;4996646;28;20034;-68
2021/06/12 06:55:08;;;;;;;7.30;6.60;;;20.90;68.50;;;;;;4995612;28;20059;-68
2021/06/12 06:57:34;;;;;;;6.78;6.25;;;21.00;68.10;;;;;;4993681;28;20703;-68
2021/06/12 07:00:00;;;;;;;7.28;6.68;;;21.10;67.80;;;;;;4997013;28;20124;-68
2021/06/12 07:02:25;;;;;;;7.55;6.85;;;21.20;67.60;;;;;;4998741;28;20026;-68
2021/06/12 07:04:51;;;;;;;7.25;6.55;;;21.20;68.00;;;;;;5001148;28;20034;-68
2021/06/12 07:07:17;;;;;;;7.47;6.78;;;21.30;66.80;;;;;;5012686;28;20563;-68
2021/06/12 07:09:42;;;;;;;7.50;6.90;;;21.40;66.90;;;;;;4994665;28;20041;-68
2021/06/12 07:12:10;;;;;;;8.55;7.07;;;21.40;66.60;;;;;;4995692;28;20057;-68
2021/06/12 07:14:37;;;;;;;6.55;5.93;;;21.50;66.60;;;;;;5000156;28;20409;-67
2021/06/12 07:17:04;;;;;;;7.13;6.53;;;21.60;66.60;;;;;;4998194;28;20034;-67
2021/06/12 07:19:29;;;;;;;7.57;6.78;;;21.70;66.60;;;;;;4998657;28;20038;-68
2021/06/12 07:21:55;;;;;;;7.00;6.18;;;21.80;66.30;;;;;;4998584;28;20041;-68
2021/06/12 07:24:21;;;;;;;7.18;6.55;;;21.90;66.10;;;;;;4999020;28;20038;-67
2021/06/12 07:26:48;;;;;;;6.95;6.35;;;21.90;65.90;;;;;;4996895;28;20452;-68
2021/06/12 07:29:14;;;;;;;6.63;6.03;;;22.00;65.90;;;;;;4998432;28;20630;-68
2021/06/12 07:31:41;;;;;;;6.00;5.50;;;22.10;65.70;;;;;;4996329;28;20138;-68
2021/06/12 07:34:09;;;;;;;6.93;6.00;;;22.20;65.70;;;;;;4999347;28;20034;-68
2021/06/12 07:36:35;;;;;;;7.43;5.43;;;22.20;65.40;;;;;;4997917;28;20061;-68
2021/06/12 07:39:02;;;;;;;6.40;5.80;;;22.30;65.70;;;;;;4996919;28;20038;-68
2021/06/12 07:41:28;;;;;;;6.72;6.22;;;22.40;65.20;;;;;;4997319;28;20068;-68
2021/06/12 07:43:55;;;;;;;5.97;5.55;;;22.50;64.80;;;;;;4997236;28;20034;-68
2021/06/12 07:46:21;;;;;;;6.65;5.57;;;22.60;64.60;;;;;;4997216;28;20096;-68
2021/06/12 07:48:46;;;;;;;9.77;5.80;;;22.70;63.90;;;;;;4998276;28;20037;-68
2021/06/12 07:51:12;;;;;;;5.70;5.20;;;22.80;63.50;;;;;;4995799;28;20042;-68
2021/06/12 07:53:38;;;;;;;5.63;5.18;;;22.90;63.10;;;;;;4995189;28;20100;-68
2021/06/12 07:56:04;;;;;;;5.95;5.45;;;23.10;63.30;;;;;;4997566;28;20100;-67
2021/06/12 07:58:30;;;;;;;6.53;6.03;;;23.20;62.80;;;;;;4995345;28;20545;-68
2021/06/12 08:00:56;;;;;;;5.90;5.22;;;23.30;62.50;;;;;;4993900;28;20045;-68
2021/06/12 08:03:21;;;;;;;5.40;4.95;;;23.50;62.50;;;;;;4997457;28;20064;-68
2021/06/12 08:05:47;;;;;;;5.07;4.68;;;23.60;61.70;;;;;;4998551;28;20038;-68
2021/06/12 08:08:13;;;;;;;5.82;5.32;;;23.70;61.30;;;;;;4996264;28;20053;-68
2021/06/12 08:10:38;;;;;;;5.40;5.00;;;23.80;60.80;;;;;;4995299;28;20029;-68
2021/06/12 08:13:04;;;;;;;8.27;5.80;;;24.00;61.70;;;;;;4997737;28;20034;-68
2021/06/12 08:15:30;;;;;;;9.48;5.90;;;24.10;61.60;;;;;;4997434;28;20026;-68
2021/06/12 08:17:56;;;;;;;6.13;5.55;;;24.20;62.00;;;;;;4997191;28;20034;-68
2021/06/12 08:20:24;;;;;;;6.07;5.57;;;24.30;61.80;;;;;;4996444;28;21925;-68
2021/06/12 08:22:50;;;;;;;5.75;5.28;;;24.40;61.90;;;;;;4997246;28;20095;-68
2021/06/12 08:25:17;;;;;;;5.43;5.03;;;24.60;61.70;;;;;;4996094;28;20026;-68
2021/06/12 08:27:43;;;;;;;5.53;5.03;;;24.70;59.90;;;;;;4996732;28;20030;-68
2021/06/12 08:30:13;;;;;;;6.65;4.60;;;24.80;59.60;;;;;;4997757;28;20026;-69
2021/06/12 08:32:39;;;;;;;5.78;4.90;;;25.00;58.90;;;;;;4998188;28;20027;-68
2021/06/12 08:35:08;;;;;;;5.00;4.60;;;25.10;58.60;;;;;;4991228;28;22153;-68
2021/06/12 08:37:35;;;;;;;5.38;4.93;;;25.20;58.50;;;;;;5002360;28;20041;-68
2021/06/12 08:40:01;;;;;;;5.18;4.70;;;25.30;58.00;;;;;;4998327;28;20080;-68
2021/06/12 08:42:27;;;;;;;7.32;5.00;;;25.50;57.20;;;;;;4996033;28;20409;-67
2021/06/12 08:44:54;;;;;;;5.30;4.90;;;25.50;57.10;;;;;;4995056;28;20034;-68
2021/06/12 08:47:20;;;;;;;5.15;4.75;;;25.60;57.20;;;;;;4996880;28;20034;-68
2021/06/12 08:49:46;;;;;;;6.20;5.57;;;25.70;57.00;;;;;;4996590;28;20042;-67
2021/06/12 08:52:12;;;;;;;5.57;5.13;;;25.90;56.50;;;;;;4994325;28;20030;-68
2021/06/12 08:54:41;;;;;;;5.60;5.20;;;25.90;55.10;;;;;;4995732;28;20038;-68
2021/06/12 08:57:09;;;;;;;5.75;5.28;;;26.00;54.30;;;;;;4997677;28;20042;-68
2021/06/12 08:59:36;;;;;;;5.85;5.10;;;26.10;53.80;;;;;;5000280;28;20513;-68
2021/06/12 09:02:05;;;;;;;4.90;4.40;;;26.20;54.30;;;;;;4999983;28;20096;-68
2021/06/12 09:04:34;;;;;;;4.60;4.30;;;26.20;54.30;;;;;;4997229;28;20042;-68
2021/06/12 09:07:22;;;;;;;5.03;4.63;;;26.30;53.40;;;;;;4999684;28;20037;-68
2021/06/12 09:09:54;;;;;;;4.65;4.20;;;26.50;52.50;;;;;;5000200;28;20243;-68
2021/06/12 09:12:20;;;;;;;4.97;4.43;;;26.60;53.20;;;;;;5000794;28;20552;-68
2021/06/12 09:15:09;;;;;;;5.15;4.22;;;26.60;52.70;;;;;;5001281;28;20497;-68
2021/06/12 09:17:40;;;;;;;4.50;4.10;;;26.80;51.40;;;;;;5000945;28;20038;-68
2021/06/12 09:20:08;;;;;;;4.00;3.78;;;26.80;52.10;;;;;;4999966;28;20045;-68
2021/06/12 09:22:34;;;;;;;5.35;4.55;;;26.90;52.10;;;;;;5000563;28;22195;-68
2021/06/12 09:24:59;;;;;;;5.10;4.57;;;27.00;52.20;;;;;;5000679;28;20460;-68
2021/06/12 09:27:25;;;;;;;5.10;4.28;;;27.10;51.20;;;;;;5005435;28;20516;-68
2021/06/12 09:29:52;;;;;;;4.85;4.50;;;27.20;50.60;;;;;;5000468;28;20062;-68
2021/06/12 09:32:20;;;;;;;4.30;4.00;;;27.30;49.90;;;;;;5001739;28;20037;-68
2021/06/12 09:34:50;;;;;;;4.28;3.90;;;27.30;50.30;;;;;;4998463;28;20046;-68
2021/06/12 09:37:18;;;;;;;4.55;4.15;;;27.40;49.90;;;;;;5000894;28;20042;-68
2021/06/12 09:39:59;;;;;;;4.50;4.20;;;27.50;50.00;;;;;;5000232;28;20436;-68
2021/06/12 09:42:50;;;;;;;5.10;4.70;;;27.50;49.30;;;;;;4998811;28;20188;-69
2021/06/12 09:45:26;;;;;;;5.00;4.57;;;27.70;49.50;;;;;;4998942;28;20061;-68
2021/06/12 09:48:06;;;;;;;5.05;4.65;;;27.80;49.90;;;;;;4998952;28;20033;-68
2021/06/12 09:50:31;;;;;;;5.13;4.72;;;27.80;50.20;;;;;;4998461;28;20111;-68
2021/06/12 09:52:57;;;;;;;5.13;4.72;;;27.90;49.90;;;;;;4995940;28;20076;-68
2021/06/12 09:55:28;;;;;;;4.90;4.47;;;28.00;49.50;;;;;;4996814;28;20045;-68
2021/06/12 09:57:56;;;;;;;5.05;4.65;;;28.10;48.70;;;;;;4998017;28;20034;-68
2021/06/12 10:00:43;;;;;;;6.43;4.65;;;28.10;49.40;;;;;;4998756;28;20104;-68
2021/06/12 10:03:20;;;;;;;5.05;4.60;;;28.10;48.40;;;;;;5000388;28;20038;-67
2021/06/12 10:05:47;;;;;;;5.07;4.53;;;28.20;48.30;;;;;;4995952;28;20034;-68
2021/06/12 10:08:14;;;;;;;4.82;4.50;;;28.30;48.70;;;;;;4996011;28;20038;-68
2021/06/12 10:10:47;;;;;;;4.97;4.57;;;28.40;48.30;;;;;;4996573;28;20042;-69
2021/06/12 10:13:13;;;;;;;5.22;4.50;;;28.40;48.00;;;;;;4997104;28;20033;-68
2021/06/12 10:15:39;;;;;;;5.15;4.70;;;28.50;47.80;;;;;;4999628;28;20045;-68
2021/06/12 10:18:05;;;;;;;5.20;4.70;;;28.50;48.00;;;;;;4999134;28;20382;-68
2021/06/12 10:20:31;;;;;;;6.18;5.22;;;28.50;48.00;;;;;;4997649;28;20038;-68
2021/06/12 10:22:57;;;;;;;5.45;5.05;;;28.40;47.60;;;;;;4999119;28;20449;-68
2021/06/12 10:25:23;;;;;;;5.18;4.75;;;28.40;47.40;;;;;;4995439;28;20084;-68
2021/06/12 10:27:49;;;;;;;5.03;4.70;;;28.40;47.80;;;;;;4998222;28;20046;-68
2021/06/12 10:30:18;;;;;;;4.70;4.40;;;28.40;47.20;;;;;;4998783;28;20042;-68
2021/06/12 10:32:46;;;;;;;5.05;4.68;;;28.40;46.90;;;;;;4998026;28;20326;-68
2021/06/12 10:35:19;;;;;;;4.93;4.53;;;28.40;46.80;;;;;;4995766;28;20038;-68
2021/06/12 10:38:00;;;;;;;4.90;4.50;;;28.40;46.30;;;;;;4998290;28;20030;-68
2021/06/12 10:40:42;;;;;;;4.80;4.40;;;28.50;46.00;;;;;;4998884;28;20034;-68
2021/06/12 10:43:17;;;;;;;5.18;4.65;;;28.50;46.80;;;;;;4998549;28;20073;-68
2021/06/12 10:45:47;;;;;;;;;;;28.60;46.40;;;;;;4996992;28;20037;-68
2021/06/12 10:48:42;;;;;;;4.50;4.18;;;28.60;45.50;;;;;;4999685;28;19996;-68
2021/06/12 10:51:25;;;;;;;5.50;4.97;;;28.60;45.80;;;;;;4997652;28;20030;-68
2021/06/12 10:54:19;;;;;;;5.05;4.65;;;28.60;46.50;;;;;;4998219;28;20867;-68
2021/06/12 10:57:15;;;;;;;5.13;4.70;;;28.70;46.90;;;;;;4998013;28;20034;-67
2021/06/12 10:59:48;;;;;;;5.50;4.65;;;28.70;46.90;;;;;;4991370;28;20034;-68
2021/06/12 11:02:30;;;;;;;4.75;4.45;;;28.80;46.90;;;;;;4999305;28;20038;-68
2021/06/12 11:05:00;;;;;;;5.00;4.65;;;28.90;45.60;;;;;;4997075;28;20038;-68
2021/06/12 11:07:33;;;;;;;4.20;3.78;;;29.00;46.50;;;;;;4999039;28;20046;-68
2021/06/12 11:10:11;;;;;;;4.75;4.15;;;29.00;45.80;;;;;;5005293;28;20157;-68
2021/06/12 11:12:40;;;;;;;4.18;3.88;;;29.10;44.90;;;;;;4996385;28;20030;-68
2021/06/12 11:15:08;;;;;;;5.50;4.20;;;29.10;46.10;;;;;;4998177;28;20484;-68
2021/06/12 11:17:34;;;;;;;4.93;4.00;;;29.10;45.80;;;;;;4999219;28;20065;-68
2021/06/12 11:20:03;;;;;;;5.60;4.47;;;29.10;45.20;;;;;;4997962;28;20042;-68
2021/06/12 11:22:51;;;;;;;4.45;4.15;;;29.20;44.60;;;;;;4996619;28;20353;-68
2021/06/12 11:25:17;;;;;;;4.30;4.00;;;29.10;44.70;;;;;;4998308;28;20085;-68
2021/06/12 11:27:45;;;;;;;4.13;3.83;;;29.10;45.00;;;;;;4998035;28;20084;-68
2021/06/12 11:30:16;;;;;;;4.20;3.90;;;29.00;44.90;;;;;;4997022;28;20120;-68
2021/06/12 11:32:44;;;;;;;4.40;3.92;;;29.00;44.70;;;;;;4995378;28;20061;-68
2021/06/12 11:35:11;;;;;;;4.10;3.80;;;29.00;45.30;;;;;;4997057;28;20049;-68
2021/06/12 11:37:50;;;;;;;4.43;4.03;;;29.00;45.80;;;;;;4997153;28;20037;-68
2021/06/12 11:40:21;;;;;;;4.00;3.58;;;29.10;45.20;;;;;;5004312;28;20259;-68
2021/06/12 11:42:49;;;;;;;7.28;5.10;;;29.10;44.60;;;;;;4997593;28;20034;-68
2021/06/12 11:45:25;;;;;;;4.72;4.40;;;29.20;44.70;;;;;;4996832;28;20397;-68
2021/06/12 11:47:52;;;;;;;4.40;3.90;;;29.30;44.50;;;;;;5012407;28;20078;-68
2021/06/12 11:50:26;;;;;;;3.40;3.20;;;29.30;43.30;;;;;;4994581;28;20034;-68
2021/06/12 11:52:52;;;;;;;3.20;3.00;;;29.30;43.60;;;;;;4995115;28;20188;-68
2021/06/12 11:55:28;;;;;;;3.70;3.40;;;29.30;43.50;;;;;;4998579;28;20081;-68
2021/06/12 11:57:55;;;;;;;3.65;3.40;;;29.30;42.80;;;;;;4998592;28;20038;-68
2021/06/12 12:00:30;;;;;;;3.20;3.00;;;29.40;43.50;;;;;;4997493;28;20053;-68
2021/06/12 12:03:03;;;;;;;;;;;29.50;43.20;;;;;;4996168;28;20031;-67
2021/06/12 12:05:39;;;;;;;3.13;2.85;;;29.60;40.60;;;;;;4997237;28;19913;-68
2021/06/12 12:08:31;;;;;;;4.40;3.28;;;29.60;42.60;;;;;;4997200;28;20068;-68
2021/06/12 12:10:56;;;;;;;6.20;4.47;;;29.60;41.60;;;;;;4997356;28;20593;-68
2021/06/12 12:13:39;;;;;;;3.22;2.92;;;29.60;42.70;;;;;;4997110;28;20113;-68
2021/06/12 12:16:17;;;;;;;3.60;3.40;;;29.50;42.30;;;;;;4996809;28;20046;-68
2021/06/12 12:18:45;;;;;;;3.53;3.28;;;29.50;42.70;;;;;;4995600;28;20864;-68
2021/06/12 12:21:11;;;;;;;3.15;2.92;;;29.40;42.80;;;;;;4995900;28;20041;-68
2021/06/12 12:23:36;;;;;;;3.38;3.15;;;29.40;43.00;;;;;;4997110;28;20092;-68
2021/06/12 12:26:05;;;;;;;3.20;2.90;;;29.40;43.60;;;;;;5001604;28;20065;-68
2021/06/12 12:28:31;;;;;;;3.53;3.30;;;29.40;43.20;;;;;;4995304;28;20030;-68
2021/06/12 12:31:06;;;;;;;3.67;3.00;;;29.50;44.00;;;;;;4997034;28;20030;-68
2021/06/12 12:33:46;;;;;;;3.38;3.13;;;29.50;44.20;;;;;;4998726;28;20403;-67
2021/06/12 12:36:12;;;;;;;3.47;3.15;;;29.60;43.80;;;;;;4999308;28;20042;-68
2021/06/12 12:38:39;;;;;;;3.75;3.42;;;29.60;44.00;;;;;;5002392;28;20537;-68
2021/06/12 12:41:07;;;;;;;4.32;3.40;;;29.70;43.60;;;;;;5000043;28;20030;-67
2021/06/12 12:43:33;;;;;;;3.95;3.15;;;29.80;43.50;;;;;;5001334;28;20064;-67
2021/06/12 12:45:59;;;;;;;2.58;2.40;;;29.80;43.90;;;;;;5001150;28;20034;-68
2021/06/12 12:48:25;;;;;;;4.50;2.50;;;29.90;42.70;;;;;;5000698;28;20039;-68
2021/06/12 12:50:52;;;;;;;3.25;2.85;;;29.90;41.70;;;;;;5001705;28;20093;-68
2021/06/12 12:53:21;;;;;;;3.22;2.92;;;30.00;41.50;;;;;;5005185;28;20031;-68